Time;durP1;ratioP1;P1;durP2;ratioP2;P2;SDS_P1;SDS_P2;PMS_P1;PMS_P2;Temp;Humidity;BMP_temperature;BMP_pressure;BME280_temperature;BME280_humidity;BME280_pressure;Samples;Min_cycle;Max_cycle;Signal;HPM_P1;HPM_P2
2022/01/25 00:08:38;;;;;;;88.97;41.20;;;4.50;99.90;;;;;;5112421;28;20058;-73
2022/01/25 00:25:06;;;;;;;89.18;39.60;;;4.40;99.90;;;;;;5113365;28;20050;-73
2022/01/25 00:30:23;;;;;;;86.50;38.60;;;4.40;99.90;;;;;;5112871;28;20142;-74
2022/01/25 00:32:50;;;;;;;91.13;41.60;;;4.70;99.90;;;;;;5112122;28;20048;-74
2022/01/25 00:35:15;;;;;;;92.03;39.72;;;4.30;99.90;;;;;;5113270;28;20131;-73
2022/01/25 00:37:41;;;;;;;97.28;42.33;;;4.50;99.90;;;;;;5111999;28;20134;-73
2022/01/25 00:40:07;;;;;;;93.38;42.15;;;4.30;99.90;;;;;;5113118;28;20040;-73
2022/01/25 00:42:33;;;;;;;93.60;41.03;;;4.40;99.90;;;;;;5111818;28;20046;-73
2022/01/25 00:44:59;;;;;;;97.50;40.17;;;4.50;99.90;;;;;;5111876;28;20059;-73
2022/01/25 00:47:25;;;;;;;97.25;41.97;;;4.20;99.90;;;;;;5113044;28;20047;-73
2022/01/25 00:49:53;;;;;;;90.97;40.53;;;4.30;99.90;;;;;;5111945;28;20039;-74
2022/01/25 00:54:46;;;;;;;;;;;4.40;99.90;;;;;;5117599;28;20117;-74
2022/01/25 00:57:12;;;;;;;97.03;40.50;;;4.20;99.90;;;;;;5115930;28;19920;-74
2022/01/25 00:59:37;;;;;;;97.03;42.22;;;4.20;99.90;;;;;;5116977;28;20529;-73
2022/01/25 01:02:07;;;;;;;96.13;41.70;;;4.50;99.90;;;;;;5117193;28;20051;-74
2022/01/25 01:04:33;;;;;;;93.90;41.15;;;4.30;99.90;;;;;;5117028;28;20043;-73
2022/01/25 01:07:02;;;;;;;97.47;42.10;;;4.40;99.90;;;;;;5116938;28;20054;-74
2022/01/25 01:09:31;;;;;;;97.65;42.45;;;4.40;99.90;;;;;;5116797;28;20079;-74
2022/01/25 01:12:03;;;;;;;93.75;41.13;;;4.40;99.90;;;;;;5116792;28;20112;-74
2022/01/25 01:30:45;;;;;;;94.15;42.00;;;4.40;99.90;;;;;;5114774;28;20533;-74
2022/01/25 01:36:31;;;;;;;95.97;41.92;;;4.20;99.90;;;;;;5116271;28;20047;-74
2022/01/25 01:41:49;;;;;;;99.07;41.13;;;4.60;99.90;;;;;;5116465;28;20048;-74
2022/01/25 01:44:28;;;;;;;89.88;41.55;;;4.40;99.90;;;;;;5115986;28;20056;-74
2022/01/25 01:47:11;;;;;;;99.43;42.10;;;4.40;99.90;;;;;;5116278;27;20047;-73
2022/01/25 01:49:44;;;;;;;93.93;41.10;;;4.40;99.90;;;;;;5115969;28;20519;-73
2022/01/25 01:52:11;;;;;;;95.30;40.17;;;4.20;99.90;;;;;;5116204;28;20499;-73
2022/01/25 01:54:37;;;;;;;95.03;40.72;;;4.40;99.90;;;;;;5116158;27;20044;-73
2022/01/25 01:57:08;;;;;;;97.00;40.30;;;4.20;99.90;;;;;;5114944;28;20085;-74
2022/01/25 01:59:34;;;;;;;95.35;41.78;;;4.30;99.90;;;;;;5115558;28;20547;-74
2022/01/25 02:02:00;;;;;;;;;;;4.30;99.90;;;;;;5114860;28;20047;-74
2022/01/25 02:04:26;;;;;;;89.70;39.72;;;4.40;99.90;;;;;;5115803;28;20014;-73
2022/01/25 02:06:52;;;;;;;90.97;40.47;;;4.50;99.90;;;;;;5115927;28;20077;-73
2022/01/25 02:09:18;;;;;;;94.68;39.75;;;4.30;99.90;;;;;;5115802;28;20453;-74
2022/01/25 02:11:44;;;;;;;95.43;39.88;;;;;;;;;;5115466;28;20043;-74
2022/01/25 02:14:12;;;;;;;94.07;40.58;;;4.20;99.90;;;;;;5115553;28;20399;-74
2022/01/25 02:24:47;;;;;;;88.00;39.78;;;4.20;99.90;;;;;;5115321;28;20048;-73
2022/01/25 02:27:14;;;;;;;90.22;39.65;;;4.10;99.90;;;;;;5115189;28;20058;-73
2022/01/25 02:29:39;;;;;;;87.78;39.13;;;4.40;99.90;;;;;;5115366;28;20097;-73
2022/01/25 02:32:07;;;;;;;93.13;41.70;;;4.50;99.90;;;;;;5114981;28;20059;-74
2022/01/25 02:34:33;;;;;;;91.05;39.63;;;4.40;99.90;;;;;;5115230;28;20487;-73
2022/01/25 02:37:00;;;;;;;93.22;41.92;;;4.30;99.90;;;;;;5115236;28;20043;-73
2022/01/25 02:39:27;;;;;;;91.72;40.53;;;;;;;;;;5114966;28;20055;-73
2022/01/25 02:41:53;;;;;;;92.65;41.58;;;4.30;99.90;;;;;;5115091;28;20108;-73
2022/01/25 02:44:24;;;;;;;86.63;39.75;;;;;;;;;;5115103;27;20047;-73
2022/01/25 02:49:28;;;;;;;92.80;39.90;;;4.30;99.90;;;;;;5114942;28;20059;-73
2022/01/25 02:51:54;;;;;;;90.60;40.00;;;4.30;99.90;;;;;;5114721;28;20043;-73
2022/01/25 02:54:20;;;;;;;90.55;40.45;;;4.40;99.90;;;;;;5097008;28;20043;-74
2022/01/25 02:56:47;;;;;;;93.22;39.13;;;4.30;99.90;;;;;;5113616;28;20040;-73
2022/01/25 02:59:15;;;;;;;88.82;39.85;;;4.40;99.90;;;;;;5114860;28;20085;-73
2022/01/25 03:01:42;;;;;;;92.40;39.80;;;4.20;99.90;;;;;;5114721;28;20069;-73
2022/01/25 03:04:08;;;;;;;87.95;38.92;;;4.60;99.90;;;;;;5114698;28;20043;-73
2022/01/25 03:06:35;;;;;;;95.95;42.25;;;;;;;;;;5114561;28;20047;-73
2022/01/25 03:09:01;;;;;;;92.80;38.85;;;4.30;99.90;;;;;;5114610;28;20551;-72
2022/01/25 03:11:27;;;;;;;96.65;40.60;;;4.20;99.90;;;;;;5114089;28;20438;-73
2022/01/25 03:13:56;;;;;;;103.03;42.10;;;4.70;99.90;;;;;;5113841;28;20081;-73
2022/01/25 03:16:33;;;;;;;89.10;38.65;;;4.40;99.90;;;;;;5114316;28;20074;-73
2022/01/25 03:19:02;;;;;;;88.25;38.47;;;4.00;99.90;;;;;;5096108;28;20561;-73
2022/01/25 03:23:58;;;;;;;91.95;39.65;;;4.20;99.90;;;;;;5114358;28;20047;-73
2022/01/25 03:26:25;;;;;;;93.28;39.78;;;;;;;;;;5112878;28;20046;-73
2022/01/25 03:28:52;;;;;;;87.85;39.35;;;4.20;99.90;;;;;;5112976;28;20063;-73
2022/01/25 03:31:18;;;;;;;90.28;39.90;;;4.00;99.90;;;;;;5113988;28;20137;-73
2022/01/25 03:33:45;;;;;;;87.88;39.72;;;4.30;99.90;;;;;;5113991;28;20518;-73
2022/01/25 03:36:12;;;;;;;89.40;38.28;;;4.40;99.90;;;;;;5113965;28;20051;-73
2022/01/25 03:38:38;;;;;;;;;;;4.40;99.90;;;;;;5114591;28;20084;-73
2022/01/25 03:41:05;;;;;;;93.72;39.63;;;;;;;;;;5113753;28;20049;-73
2022/01/25 03:43:31;;;;;;;91.93;38.13;;;4.50;99.90;;;;;;5113896;28;20413;-73
2022/01/25 03:46:16;;;;;;;95.18;39.47;;;4.40;99.90;;;;;;5112609;28;20050;-73
2022/01/25 03:51:26;;;;;;;87.57;38.35;;;4.10;99.90;;;;;;5113667;28;20506;-73
2022/01/25 03:53:53;;;;;;;88.65;40.08;;;4.30;99.90;;;;;;5113544;28;20083;-73
2022/01/25 03:56:19;;;;;;;92.00;38.95;;;4.30;99.90;;;;;;5113734;28;20083;-73
2022/01/25 03:58:44;;;;;;;87.55;38.72;;;4.20;99.90;;;;;;5112301;28;20461;-72
2022/01/25 04:01:10;;;;;;;95.90;41.10;;;4.20;99.90;;;;;;5113788;28;20043;-73
2022/01/25 04:03:42;;;;;;;95.78;40.42;;;4.40;99.90;;;;;;5113566;28;20054;-73
2022/01/25 04:06:10;;;;;;;91.75;40.05;;;4.10;99.90;;;;;;5113669;28;20051;-73
2022/01/25 04:08:36;;;;;;;93.47;41.00;;;4.40;99.90;;;;;;5113277;28;20058;-73
2022/01/25 04:11:02;;;;;;;95.15;39.03;;;4.20;99.90;;;;;;5112047;28;20050;-73
2022/01/25 04:13:28;;;;;;;94.72;38.85;;;4.40;99.90;;;;;;5113649;28;20044;-72
2022/01/25 04:15:57;;;;;;;91.97;39.70;;;4.50;99.90;;;;;;5113407;28;20479;-72
2022/01/25 04:18:37;;;;;;;88.28;38.88;;;4.20;99.90;;;;;;5113363;28;20058;-73
2022/01/25 04:21:23;;;;;;;93.28;38.20;;;4.20;99.90;;;;;;5113364;28;20040;-72
2022/01/25 04:26:33;;;;;;;95.32;39.95;;;4.10;99.90;;;;;;5113502;28;20403;-73
2022/01/25 04:28:59;;;;;;;93.95;39.88;;;4.30;99.90;;;;;;5112006;28;20040;-72
2022/01/25 04:31:25;;;;;;;93.25;40.70;;;4.60;99.90;;;;;;5111660;28;20070;-73
2022/01/25 04:34:10;;;;;;;95.93;40.45;;;4.30;99.90;;;;;;5095240;28;20161;-73
2022/01/25 04:51:19;;;;;;;89.80;39.42;;;;;;;;;;5112943;28;20513;-73
2022/01/25 04:56:24;;;;;;;94.25;39.17;;;4.50;99.90;;;;;;5112866;28;20380;-73
2022/01/25 04:58:34;;;;;;;99.25;41.65;;;4.40;99.90;;;;;;5104473;28;20051;-74
2022/01/25 05:00:59;;;;;;;98.93;39.63;;;4.30;99.90;;;;;;5112958;28;20491;-74
2022/01/25 05:03:34;;;;;;;97.75;39.72;;;4.30;99.90;;;;;;5111689;28;20137;-73
2022/01/25 05:06:08;;;;;;;95.80;40.90;;;4.30;99.90;;;;;;5112230;28;20087;-73
2022/01/25 05:08:39;;;;;;;92.15;38.35;;;4.20;99.90;;;;;;5112795;28;20043;-74
2022/01/25 05:13:50;;;;;;;97.55;40.75;;;4.30;99.90;;;;;;5111757;28;20055;-73
2022/01/25 05:16:28;;;;;;;96.95;40.35;;;4.30;99.90;;;;;;5111919;28;20077;-73
2022/01/25 05:19:22;;;;;;;89.68;39.10;;;4.40;99.90;;;;;;5112065;28;20048;-73
2022/01/25 05:24:41;;;;;;;99.20;41.43;;;4.20;99.90;;;;;;5112877;28;20085;-73
2022/01/25 05:27:08;;;;;;;100.32;40.15;;;4.40;99.90;;;;;;5112863;28;20277;-73
2022/01/25 05:29:34;;;;;;;98.25;41.55;;;4.20;99.90;;;;;;5112683;28;20367;-73
2022/01/25 05:32:00;;;;;;;96.25;39.92;;;4.30;99.90;;;;;;5112561;28;20055;-73
2022/01/25 05:34:26;;;;;;;97.25;40.05;;;4.20;99.90;;;;;;5112530;28;20475;-73
2022/01/25 05:36:52;;;;;;;94.63;40.85;;;4.20;99.90;;;;;;5111319;28;20040;-72
2022/01/25 05:39:23;;;;;;;89.10;39.58;;;4.30;99.90;;;;;;5115848;28;20108;-72
2022/01/25 05:41:56;;;;;;;99.60;41.20;;;4.30;99.90;;;;;;5116418;28;20209;-73
2022/01/25 05:47:07;;;;;;;96.82;38.58;;;;;;;;;;5115091;28;20130;-73
2022/01/25 05:49:35;;;;;;;100.90;41.30;;;4.40;99.90;;;;;;5116056;28;20047;-73
2022/01/25 05:52:06;;;;;;;85.80;39.35;;;4.70;99.90;;;;;;5116022;28;20054;-72
2022/01/25 05:54:32;;;;;;;89.85;38.30;;;4.70;99.90;;;;;;5116125;28;20043;-73
2022/01/25 05:56:58;;;;;;;90.53;38.53;;;;;;;;;;5116117;28;20039;-73
2022/01/25 05:59:24;;;;;;;93.22;38.50;;;4.20;99.90;;;;;;5115873;28;20134;-74
2022/01/25 06:01:49;;;;;;;93.30;38.90;;;4.50;99.90;;;;;;5115844;28;20085;-72
2022/01/25 06:04:16;;;;;;;99.00;41.13;;;4.30;99.90;;;;;;5115560;28;20047;-73
2022/01/25 06:06:41;;;;;;;92.70;39.58;;;4.30;99.90;;;;;;5115867;28;20545;-73
2022/01/25 06:09:07;;;;;;;96.15;39.72;;;4.50;99.90;;;;;;5115738;28;20079;-72
2022/01/25 06:11:34;;;;;;;98.85;39.40;;;4.50;99.90;;;;;;5114408;28;20096;-73
2022/01/25 06:14:01;;;;;;;95.88;40.40;;;4.30;99.90;;;;;;5115434;28;20048;-73
2022/01/25 06:16:29;;;;;;;95.97;40.63;;;4.40;99.90;;;;;;5114712;28;20043;-72
2022/01/25 06:18:56;;;;;;;93.95;40.45;;;4.40;99.90;;;;;;5115487;28;20083;-72
2022/01/25 06:21:22;;;;;;;99.68;38.97;;;;;;;;;;5115566;28;20089;-73
2022/01/25 06:23:48;;;;;;;99.32;40.60;;;4.30;99.90;;;;;;5115525;28;20048;-73
2022/01/25 06:26:14;;;;;;;98.05;39.45;;;4.70;99.90;;;;;;5115423;28;20134;-73
2022/01/25 06:28:39;;;;;;;99.68;39.53;;;4.40;99.90;;;;;;5114241;28;20126;-73
2022/01/25 06:31:07;;;;;;;87.40;37.00;;;4.70;99.90;;;;;;5096844;28;20109;-73
2022/01/25 06:33:33;;;;;;;93.15;39.00;;;;;;;;;;5115213;28;20411;-73
2022/01/25 06:35:59;;;;;;;95.75;39.67;;;4.50;99.90;;;;;;5115317;28;20112;-73
2022/01/25 06:38:28;;;;;;;;;;;;;;;;;;5115603;28;20040;-73
2022/01/25 06:40:54;;;;;;;96.10;40.58;;;4.30;99.90;;;;;;5115308;28;19926;-73
2022/01/25 06:43:20;;;;;;;101.40;38.80;;;4.10;99.90;;;;;;5114918;28;20407;-73
2022/01/25 06:45:54;;;;;;;103.70;41.53;;;4.40;99.90;;;;;;5115215;28;20109;-73
2022/01/25 06:48:20;;;;;;;102.20;41.83;;;4.40;99.90;;;;;;5114884;28;20123;-73
2022/01/25 06:50:46;;;;;;;94.05;40.47;;;4.20;99.90;;;;;;5114934;28;20456;-74
2022/01/25 06:53:12;;;;;;;99.57;41.22;;;;;;;;;;5115122;28;20055;-73
2022/01/25 06:55:38;;;;;;;101.15;39.78;;;4.40;99.90;;;;;;5113809;28;20569;-73
2022/01/25 06:58:04;;;;;;;98.93;40.08;;;4.50;99.90;;;;;;5114807;28;20035;-73
2022/01/25 07:00:29;;;;;;;94.28;39.08;;;4.60;99.90;;;;;;5113797;28;20059;-73
2022/01/25 07:02:55;;;;;;;96.68;38.63;;;4.60;99.90;;;;;;5114536;28;20044;-73
2022/01/25 07:05:21;;;;;;;96.90;39.35;;;;;;;;;;5109086;27;20058;-76
2022/01/25 07:07:47;;;;;;;93.53;38.20;;;4.40;99.90;;;;;;5110568;27;20097;-73
2022/01/25 07:10:14;;;;;;;99.15;40.60;;;4.50;99.90;;;;;;5076507;28;20456;-73
2022/01/25 07:12:39;;;;;;;92.90;39.05;;;4.40;99.90;;;;;;5110295;27;20103;-73
2022/01/25 07:15:06;;;;;;;96.28;38.95;;;4.40;99.90;;;;;;5113426;28;20040;-73
2022/01/25 07:17:31;;;;;;;96.53;39.25;;;5.90;99.90;;;;;;5111737;28;20043;-73
2022/01/25 07:19:57;;;;;;;94.22;39.25;;;4.40;99.90;;;;;;5113293;27;20615;-73
2022/01/25 07:22:23;;;;;;;102.50;39.03;;;;;;;;;;5111578;28;20048;-73
2022/01/25 07:24:49;;;;;;;99.57;39.83;;;4.60;99.90;;;;;;5111983;28;20044;-73
2022/01/25 07:27:15;;;;;;;96.93;39.13;;;4.30;99.90;;;;;;5110989;28;20047;-73
2022/01/25 07:29:40;;;;;;;100.68;39.90;;;4.40;99.90;;;;;;5112174;27;20040;-75
2022/01/25 07:32:06;;;;;;;96.55;39.28;;;4.40;99.90;;;;;;5114735;27;20056;-73
2022/01/25 07:34:32;;;;;;;96.45;38.65;;;4.30;99.90;;;;;;5113412;27;20043;-74
2022/01/25 07:36:58;;;;;;;94.85;39.28;;;4.40;99.90;;;;;;5113062;28;20044;-74
2022/01/25 07:39:26;;;;;;;89.10;38.08;;;4.60;99.90;;;;;;5110173;28;20052;-73
2022/01/25 07:41:57;;;;;;;98.22;39.85;;;4.80;99.90;;;;;;5112414;28;20410;-73
2022/01/25 07:44:27;;;;;;;100.53;40.92;;;4.40;99.90;;;;;;5112839;28;20040;-72
2022/01/25 07:46:53;;;;;;;100.60;39.45;;;4.40;99.90;;;;;;5112530;28;20044;-72
2022/01/25 07:49:18;;;;;;;100.32;39.58;;;4.40;99.90;;;;;;5110599;28;20093;-73
2022/01/25 07:51:44;;;;;;;103.50;39.42;;;4.50;99.90;;;;;;5111500;28;20040;-73
2022/01/25 07:54:10;;;;;;;103.28;39.50;;;4.10;99.90;;;;;;5112081;27;20138;-73
2022/01/25 07:56:36;;;;;;;96.68;39.78;;;4.10;99.90;;;;;;5112525;28;20047;-73
2022/01/25 07:59:02;;;;;;;103.13;40.42;;;4.50;99.90;;;;;;5112251;28;20060;-72
2022/01/25 08:01:28;;;;;;;95.82;39.90;;;4.20;99.90;;;;;;5108850;28;20039;-72
2022/01/25 08:03:53;;;;;;;92.38;39.88;;;4.20;99.90;;;;;;5112441;28;20055;-73
2022/01/25 08:06:21;;;;;;;101.43;41.33;;;4.20;99.90;;;;;;5111907;28;20391;-72
2022/01/25 08:08:47;;;;;;;100.60;38.60;;;4.10;99.90;;;;;;5112192;28;20055;-77
2022/01/25 08:11:13;;;;;;;98.32;38.38;;;4.70;99.90;;;;;;5110853;27;20505;-72
2022/01/25 08:13:46;;;;;;;94.22;38.20;;;4.40;99.90;;;;;;5110951;28;20048;-72
2022/01/25 08:16:12;;;;;;;95.32;39.10;;;4.60;99.90;;;;;;5095357;28;20066;-72
2022/01/25 08:18:37;;;;;;;103.88;39.45;;;4.40;99.90;;;;;;5110978;28;20428;-72
2022/01/25 08:21:03;;;;;;;91.60;38.15;;;4.80;99.90;;;;;;5110084;28;20535;-73
2022/01/25 08:23:29;;;;;;;96.05;39.70;;;4.30;99.90;;;;;;5110888;28;20051;-73
2022/01/25 08:25:55;;;;;;;102.95;41.55;;;;;;;;;;5112343;28;20050;-73
2022/01/25 08:28:21;;;;;;;101.20;40.35;;;;;;;;;;5093913;28;20109;-72
2022/01/25 08:30:47;;;;;;;100.75;39.65;;;;;;;;;;5110160;28;20063;-74
2022/01/25 08:33:13;;;;;;;98.00;39.13;;;4.50;99.90;;;;;;5112020;28;20064;-73
2022/01/25 08:35:40;;;;;;;102.82;38.67;;;4.50;99.90;;;;;;5111558;28;20073;-73
2022/01/25 08:38:06;;;;;;;96.65;39.63;;;;;;;;;;5110895;28;20050;-73
2022/01/25 08:40:33;;;;;;;108.03;41.67;;;4.40;99.90;;;;;;5110234;28;20052;-72
2022/01/25 08:42:59;;;;;;;94.03;38.25;;;4.70;99.90;;;;;;5111912;28;20458;-72
2022/01/25 08:45:25;;;;;;;94.07;38.58;;;4.10;99.90;;;;;;5110812;28;20046;-72
2022/01/25 08:47:51;;;;;;;104.18;40.05;;;4.50;99.90;;;;;;5111985;28;20051;-72
2022/01/25 08:50:17;;;;;;;101.68;40.50;;;4.50;99.90;;;;;;5109706;28;20075;-72
2022/01/25 08:52:42;;;;;;;100.03;38.30;;;4.50;99.90;;;;;;5111667;28;20111;-72
2022/01/25 08:55:08;;;;;;;110.20;41.50;;;4.50;99.90;;;;;;5112026;28;20051;-73
2022/01/25 08:57:34;;;;;;;98.57;39.65;;;4.70;99.90;;;;;;5111389;28;20448;-72
2022/01/25 09:00:01;;;;;;;91.18;36.97;;;4.40;99.90;;;;;;5108857;28;20052;-72
2022/01/25 09:02:27;;;;;;;93.28;40.97;;;4.50;99.90;;;;;;5111309;28;20083;-72
2022/01/25 09:04:52;;;;;;;98.97;40.22;;;4.30;99.90;;;;;;5110097;28;20074;-73
2022/01/25 09:07:18;;;;;;;102.50;38.67;;;4.40;99.90;;;;;;5110468;28;20054;-73
2022/01/25 09:09:44;;;;;;;103.78;41.05;;;4.50;99.90;;;;;;5110264;28;20065;-73
2022/01/25 09:12:10;;;;;;;104.22;39.88;;;4.60;99.90;;;;;;5129276;27;20046;-73
2022/01/25 09:14:36;;;;;;;101.78;39.35;;;4.50;99.90;;;;;;5137184;27;20498;-73
2022/01/25 09:17:02;;;;;;;96.22;40.05;;;4.50;99.90;;;;;;5127209;27;20047;-73
2022/01/25 09:19:28;;;;;;;98.55;37.92;;;4.60;99.90;;;;;;5131853;27;20055;-73
2022/01/25 09:22:01;;;;;;;94.82;39.05;;;4.50;99.90;;;;;;5118251;27;20056;-74
2022/01/25 09:24:28;;;;;;;101.38;39.80;;;4.40;99.90;;;;;;5115001;28;20051;-73
2022/01/25 09:26:54;;;;;;;98.30;40.05;;;;;;;;;;5115849;28;20122;-73
2022/01/25 09:29:19;;;;;;;102.55;39.95;;;4.70;99.90;;;;;;5116581;28;20197;-72
2022/01/25 09:31:45;;;;;;;99.82;40.15;;;4.50;99.90;;;;;;5114971;28;20131;-72
2022/01/25 09:34:12;;;;;;;106.25;40.25;;;4.30;99.90;;;;;;5116481;28;20483;-73
2022/01/25 09:36:38;;;;;;;101.18;40.20;;;4.80;99.90;;;;;;5098170;28;20040;-72
2022/01/25 09:39:03;;;;;;;105.03;42.90;;;4.50;99.90;;;;;;5116531;28;20043;-73
2022/01/25 09:41:30;;;;;;;110.85;41.15;;;;;;;;;;5116112;28;20040;-72
2022/01/25 09:43:56;;;;;;;102.40;40.80;;;;;;;;;;5116325;27;20047;-72
2022/01/25 09:46:22;;;;;;;111.53;42.08;;;4.40;99.90;;;;;;5115344;28;20066;-73
2022/01/25 09:48:48;;;;;;;107.28;40.05;;;4.50;99.90;;;;;;5115022;28;20047;-72
2022/01/25 09:51:17;;;;;;;107.57;40.58;;;4.40;99.90;;;;;;5115908;28;20103;-73
2022/01/25 09:53:42;;;;;;;109.90;41.20;;;4.40;99.90;;;;;;5116230;28;20116;-72
2022/01/25 09:56:08;;;;;;;105.60;40.88;;;4.70;99.90;;;;;;5115957;28;20470;-73
2022/01/25 09:58:36;;;;;;;108.18;41.58;;;4.50;99.90;;;;;;5116018;28;20043;-72
2022/01/25 10:01:03;;;;;;;105.97;42.28;;;;;;;;;;5116096;28;20119;-73
2022/01/25 10:03:37;;;;;;;99.97;37.95;;;4.50;99.90;;;;;;5115781;28;20047;-73
2022/01/25 10:06:04;;;;;;;107.60;41.40;;;4.50;99.90;;;;;;5115957;28;20047;-73
2022/01/25 10:08:36;;;;;;;106.47;40.47;;;4.50;99.90;;;;;;5114621;28;20052;-72
2022/01/25 10:11:14;;;;;;;109.47;41.97;;;4.50;99.90;;;;;;5115442;28;20047;-73
2022/01/25 10:13:46;;;;;;;121.40;42.15;;;4.40;99.90;;;;;;5115764;28;20048;-72
2022/01/25 10:16:21;;;;;;;111.40;41.20;;;4.50;99.90;;;;;;5115443;28;20127;-72
2022/01/25 10:18:53;;;;;;;112.97;42.50;;;4.40;99.90;;;;;;5115813;27;20104;-72
2022/01/25 10:21:23;;;;;;;117.15;41.72;;;4.80;99.90;;;;;;5115601;28;20051;-73
2022/01/25 10:24:09;;;;;;;111.88;43.53;;;4.60;99.90;;;;;;5115165;28;20082;-73
2022/01/25 10:26:35;;;;;;;114.22;41.92;;;4.20;99.90;;;;;;5115171;28;20100;-72
2022/01/25 10:29:01;;;;;;;112.50;40.80;;;4.60;99.90;;;;;;5115565;28;20444;-72
2022/01/25 10:31:37;;;;;;;121.68;44.22;;;4.50;99.90;;;;;;5115257;28;20584;-73
2022/01/25 10:34:04;;;;;;;127.83;42.70;;;;;;;;;;5115317;28;20351;-72
2022/01/25 10:36:30;;;;;;;129.05;44.97;;;4.40;99.90;;;;;;5115250;28;20310;-73
2022/01/25 10:38:56;;;;;;;110.18;42.30;;;4.40;99.90;;;;;;5115083;28;20054;-73
2022/01/25 10:41:25;;;;;;;117.53;43.08;;;4.50;99.90;;;;;;5115103;28;20036;-72
2022/01/25 10:43:54;;;;;;;121.50;41.10;;;4.50;99.90;;;;;;5114253;28;20201;-72
2022/01/25 10:46:24;;;;;;;122.90;45.00;;;4.50;99.90;;;;;;5115127;28;20073;-72
2022/01/25 10:48:53;;;;;;;128.82;44.00;;;4.50;99.90;;;;;;5115144;28;20040;-72
2022/01/25 10:51:42;;;;;;;124.93;44.20;;;4.30;99.90;;;;;;5113613;28;20055;-73
2022/01/25 10:54:22;;;;;;;117.63;42.25;;;4.50;99.90;;;;;;5114753;28;20051;-73
2022/01/25 10:56:56;;;;;;;128.45;43.83;;;4.50;99.90;;;;;;5115015;28;20054;-72
2022/01/25 10:59:33;;;;;;;120.07;42.80;;;4.60;99.90;;;;;;5114785;28;20044;-72
2022/01/25 11:02:00;;;;;;;127.83;43.60;;;4.30;99.90;;;;;;5114714;28;20043;-72
2022/01/25 11:04:36;;;;;;;121.80;43.33;;;4.20;99.90;;;;;;5113612;28;20073;-72
2022/01/25 11:07:05;;;;;;;121.10;41.80;;;4.40;99.90;;;;;;5114888;28;20441;-72
2022/01/25 11:09:40;;;;;;;118.63;42.33;;;4.90;99.90;;;;;;5114480;28;20058;-73
2022/01/25 11:12:09;;;;;;;129.55;43.42;;;4.70;99.90;;;;;;5114630;28;20048;-72
2022/01/25 11:14:51;;;;;;;125.38;43.90;;;4.70;99.90;;;;;;5114297;28;20491;-72
2022/01/25 11:17:18;;;;;;;120.97;43.42;;;4.70;99.90;;;;;;5114509;28;20058;-73
2022/01/25 11:19:44;;;;;;;122.18;43.03;;;4.70;99.90;;;;;;5113653;28;20051;-72
2022/01/25 11:22:11;;;;;;;115.53;44.00;;;4.60;99.90;;;;;;5113011;28;20039;-73
2022/01/25 11:24:39;;;;;;;119.07;41.97;;;4.80;99.90;;;;;;5114060;28;20150;-73
2022/01/25 11:27:06;;;;;;;131.02;42.65;;;5.00;99.90;;;;;;5113137;28;20050;-72
2022/01/25 11:29:39;;;;;;;126.60;42.80;;;4.70;99.90;;;;;;5114256;28;20046;-72
2022/01/25 11:32:10;;;;;;;119.28;42.83;;;4.50;99.90;;;;;;5114221;28;20047;-72
2022/01/25 11:34:38;;;;;;;127.57;45.70;;;4.70;99.90;;;;;;5114056;28;20073;-72
2022/01/25 11:37:07;;;;;;;125.50;44.60;;;4.60;99.90;;;;;;5113654;28;20043;-72
2022/01/25 11:39:34;;;;;;;130.07;44.70;;;4.80;99.90;;;;;;5113524;28;20483;-72
2022/01/25 11:42:15;;;;;;;129.73;43.45;;;4.70;99.90;;;;;;5114174;28;20048;-72
2022/01/25 11:44:51;;;;;;;127.40;43.20;;;4.60;99.90;;;;;;5114078;28;20086;-71
2022/01/25 11:47:30;;;;;;;123.20;44.50;;;4.70;99.90;;;;;;5113904;28;20047;-72
2022/01/25 11:49:59;;;;;;;114.03;41.53;;;4.40;99.90;;;;;;5113763;28;20048;-72
2022/01/25 11:52:27;;;;;;;123.35;44.42;;;4.80;99.90;;;;;;5113508;28;20441;-72
2022/01/25 11:55:26;;;;;;;119.00;42.55;;;4.60;99.90;;;;;;5114075;28;20040;-72
2022/01/25 11:57:57;;;;;;;126.38;46.28;;;;;;;;;;5112671;28;20501;-72
2022/01/25 12:00:47;;;;;;;129.65;44.63;;;4.70;99.90;;;;;;5112404;28;20135;-72
2022/01/25 12:03:47;;;;;;;118.72;43.28;;;4.90;99.90;;;;;;5112892;28;20493;-72
2022/01/25 12:06:21;;;;;;;124.28;41.72;;;4.60;99.90;;;;;;5102338;28;20060;-72
2022/01/25 12:11:38;;;;;;;118.18;43.30;;;4.60;99.90;;;;;;5123167;27;20093;-73
2022/01/25 12:14:26;;;;;;;110.57;41.75;;;4.50;99.90;;;;;;5132736;27;20079;-72
2022/01/25 12:17:04;;;;;;;121.18;42.35;;;4.60;99.90;;;;;;5133761;27;20047;-72
2022/01/25 12:19:35;;;;;;;122.65;42.30;;;4.80;99.90;;;;;;5134081;27;20047;-72
2022/01/25 12:22:07;;;;;;;112.63;41.45;;;4.60;99.90;;;;;;5133727;27;20130;-72
2022/01/25 12:25:33;;;;;;;115.03;42.42;;;4.70;99.90;;;;;;5134007;27;20082;-73
2022/01/25 12:27:57;;;;;;;109.00;39.50;;;4.50;99.90;;;;;;5130686;27;20047;-72
2022/01/25 12:30:38;;;;;;;116.47;41.58;;;4.40;99.90;;;;;;5133531;27;20543;-72
2022/01/25 12:33:23;;;;;;;123.47;42.13;;;4.80;99.90;;;;;;5133771;27;20054;-72
2022/01/25 12:36:00;;;;;;;118.32;41.33;;;4.80;99.90;;;;;;5133358;27;20070;-72
2022/01/25 12:38:38;;;;;;;123.60;42.85;;;4.50;99.90;;;;;;5133706;28;20355;-72
2022/01/25 12:41:12;;;;;;;112.57;41.15;;;4.80;99.90;;;;;;5132655;28;20371;-72
2022/01/25 12:43:40;;;;;;;121.10;42.83;;;4.60;99.90;;;;;;5133707;27;20085;-72
2022/01/25 12:46:18;;;;;;;121.05;42.42;;;4.70;99.90;;;;;;5133472;27;20096;-73
2022/01/25 12:48:50;;;;;;;113.45;41.20;;;4.50;99.90;;;;;;5137835;27;20043;-72
2022/01/25 12:51:34;;;;;;;113.28;41.60;;;4.70;99.90;;;;;;5136372;27;20393;-72
2022/01/25 12:54:06;;;;;;;122.75;42.53;;;4.90;99.90;;;;;;5137862;27;20035;-72
2022/01/25 12:56:40;;;;;;;118.25;43.00;;;4.60;99.90;;;;;;5137752;27;20043;-73
2022/01/25 12:59:12;;;;;;;115.90;40.83;;;4.60;99.90;;;;;;5137885;27;20047;-72
2022/01/25 13:01:40;;;;;;;112.47;41.75;;;4.70;99.90;;;;;;5137752;27;20035;-72
2022/01/25 13:04:07;;;;;;;118.13;42.70;;;4.60;99.90;;;;;;5136709;27;20078;-72
2022/01/25 13:06:34;;;;;;;132.57;43.65;;;;;;;;;;5136220;27;20051;-72
2022/01/25 13:17:17;;;;;;;122.10;43.97;;;4.80;99.90;;;;;;5137417;27;20130;-72
2022/01/25 13:19:57;;;;;;;117.82;41.55;;;4.50;99.90;;;;;;5136927;27;20047;-72
2022/01/25 13:22:31;;;;;;;124.55;43.28;;;4.40;99.90;;;;;;5136440;27;20043;-71
2022/01/25 13:27:45;;;;;;;116.03;43.10;;;4.40;99.90;;;;;;5137132;27;20134;-72
2022/01/25 13:32:56;;;;;;;118.93;42.03;;;4.60;99.90;;;;;;5137092;27;20104;-72
2022/01/25 13:35:27;;;;;;;129.15;44.85;;;4.40;99.90;;;;;;5135564;27;20055;-72
2022/01/25 13:38:23;;;;;;;130.82;45.40;;;4.50;99.90;;;;;;5136094;27;20047;-72
2022/01/25 13:41:16;;;;;;;123.15;42.03;;;4.70;99.90;;;;;;5136878;27;20039;-72
2022/01/25 13:46:26;;;;;;;126.45;43.10;;;4.20;99.90;;;;;;5136916;27;20100;-72
2022/01/25 13:48:54;;;;;;;129.85;44.17;;;4.70;99.90;;;;;;5136267;27;20108;-72
2022/01/25 13:51:22;;;;;;;124.60;44.75;;;4.50;99.90;;;;;;5136826;27;20090;-72
2022/01/25 13:54:02;;;;;;;122.78;42.88;;;4.30;99.90;;;;;;5136702;27;20085;-72
2022/01/25 13:56:33;;;;;;;122.05;44.08;;;4.40;99.90;;;;;;5136722;27;20039;-72
2022/01/25 13:59:00;;;;;;;115.18;40.58;;;4.40;99.90;;;;;;5135678;27;20471;-72
2022/01/25 14:01:28;;;;;;;116.68;41.53;;;4.20;99.90;;;;;;5134967;27;20501;-72
2022/01/25 14:04:01;;;;;;;121.90;43.38;;;4.40;99.90;;;;;;5136305;27;20092;-72
2022/01/25 14:06:31;;;;;;;120.90;43.78;;;4.80;99.90;;;;;;5135731;27;20055;-71
2022/01/25 14:09:28;;;;;;;120.90;40.67;;;4.20;99.90;;;;;;5133487;27;20051;-71
2022/01/25 14:25:28;;;;;;;129.18;49.85;;;;;;;;;;5135017;27;20062;-69
2022/01/25 14:27:57;;;;;;;131.88;42.67;;;4.30;99.90;;;;;;5135632;27;20511;-69
2022/01/25 14:30:23;;;;;;;118.30;41.33;;;4.40;99.90;;;;;;5135519;27;20074;-70
2022/01/25 14:33:10;;;;;;;118.75;40.25;;;4.50;99.90;;;;;;5134367;27;20047;-69
2022/01/25 14:36:00;;;;;;;126.65;41.55;;;4.20;99.90;;;;;;5135958;27;20126;-74
2022/01/25 14:38:34;;;;;;;130.52;43.95;;;4.10;99.90;;;;;;5135748;27;20050;-72
2022/01/25 14:41:15;;;;;;;123.25;42.05;;;3.80;99.90;;;;;;5135665;27;20039;-72
2022/01/25 14:43:51;;;;;;;122.35;41.05;;;;;;;;;;5135825;27;20055;-72
2022/01/25 14:46:32;;;;;;;124.13;42.40;;;4.20;99.90;;;;;;5135379;27;20121;-72
2022/01/25 14:49:16;;;;;;;125.38;40.88;;;4.60;99.90;;;;;;5135404;27;20595;-72
2022/01/25 14:51:44;;;;;;;123.20;42.38;;;4.60;99.90;;;;;;5135762;27;20043;-72
2022/01/25 14:54:15;;;;;;;127.93;43.90;;;4.20;99.90;;;;;;5135477;27;20490;-72
2022/01/25 14:56:50;;;;;;;121.47;41.53;;;4.30;99.90;;;;;;5135682;27;20100;-72
2022/01/25 14:59:27;;;;;;;128.20;43.08;;;4.20;99.90;;;;;;5135323;27;20100;-71